Time,TemperatureF,DewpointF,PressureIn,WindDirection,WindDirectionDegrees,WindSpeedMPH,WindSpeedGustMPH,Humidity,HourlyPrecipIn,Conditions,Clouds,dailyrainin,SoftwareType,DateUTC
2013-10-13 00:02:00,47.7,46.6,30.22,NE,41,0.0,0.0,96,0.00,,---,0.09,VWS V13.00,2013-10-13 07:02:00,
2013-10-13 00:07:00,47.7,46.6,30.23,NE,41,0.0,0.0,96,0.00,,---,0.00,VWS V13.00,2013-10-13 07:07:00,
2013-10-13 00:12:00,47.7,46.6,30.23,NE,41,0.0,0.0,96,0.00,,---,0.00,VWS V13.00,2013-10-13 07:12:00,
2013-10-13 00:17:00,47.7,46.6,30.23,NE,41,0.0,0.0,96,0.00,,---,0.00,VWS V13.00,2013-10-13 07:17:00,
2013-10-13 00:22:00,47.7,46.6,30.23,NE,41,0.0,0.0,96,0.00,,---,0.00,VWS V13.00,2013-10-13 07:22:00,
2013-10-13 00:27:00,47.7,46.6,30.23,NE,41,0.0,0.0,96,0.00,,---,0.00,VWS V13.00,2013-10-13 07:27:00,
2013-10-13 00:32:00,47.7,46.9,30.23,NE,41,0.0,0.0,97,0.00,,---,0.00,VWS V13.00,2013-10-13 07:32:00,
2013-10-13 00:37:00,47.9,47.1,30.23,NE,41,0.0,0.0,97,0.00,,---,0.00,VWS V13.00,2013-10-13 07:37:00,
2013-10-13 00:42:00,47.9,47.1,30.23,NE,41,0.0,0.0,97,0.00,,---,0.00,VWS V13.00,2013-10-13 07:42:00,
2013-10-13 00:47:00,47.9,47.1,30.23,NE,41,0.0,0.0,97,0.00,,---,0.00,VWS V13.00,2013-10-13 07:47:00,
2013-10-13 00:52:00,47.9,47.1,30.23,NE,41,0.0,0.0,97,0.00,,---,0.00,VWS V13.00,2013-10-13 07:52:00,
2013-10-13 00:57:00,47.9,47.1,30.23,NE,41,0.0,0.0,97,0.00,,---,0.00,VWS V13.00,2013-10-13 07:57:00,
2013-10-13 01:02:00,47.9,47.1,30.23,NE,41,0.0,0.0,97,0.00,,---,0.00,VWS V13.00,2013-10-13 08:02:00,
2013-10-13 01:07:00,47.9,47.1,30.23,NE,41,0.0,0.0,97,0.00,,---,0.00,VWS V13.00,2013-10-13 08:07:00,
2013-10-13 01:12:00,47.9,47.1,30.23,NE,41,0.0,0.0,97,0.00,,---,0.00,VWS V13.00,2013-10-13 08:12:00,
2013-10-13 01:17:00,47.9,47.1,30.23,NE,41,0.0,0.0,97,0.00,,---,0.00,VWS V13.00,2013-10-13 08:17:00,
2013-10-13 01:22:00,47.9,47.1,30.24,NE,41,0.0,0.0,97,0.00,,---,0.00,VWS V13.00,2013-10-13 08:22:00,
2013-10-13 01:27:00,47.9,47.1,30.24,NE,41,0.0,0.0,97,0.00,,---,0.00,VWS V13.00,2013-10-13 08:27:00,
2013-10-13 01:32:00,47.9,47.1,30.24,NE,41,0.0,0.0,97,0.00,,---,0.00,VWS V13.00,2013-10-13 08:32:00,
2013-10-13 01:37:00,47.9,47.1,30.24,NE,41,0.0,0.0,97,0.00,,---,0.00,VWS V13.00,2013-10-13 08:37:00,
2013-10-13 01:42:00,47.7,46.9,30.24,NE,41,0.0,0.0,97,0.00,,---,0.00,VWS V13.00,2013-10-13 08:42:00,
2013-10-13 01:47:00,47.7,46.9,30.24,NE,41,0.0,0.0,97,0.00,,---,0.00,VWS V13.00,2013-10-13 08:47:00,
2013-10-13 01:52:00,47.6,46.8,30.24,NE,41,0.0,0.0,97,0.00,,---,0.00,VWS V13.00,2013-10-13 08:52:00,
2013-10-13 01:57:00,47.6,46.8,30.24,NE,41,0.0,0.0,97,0.00,,---,0.00,VWS V13.00,2013-10-13 08:57:00,
2013-10-13 02:02:00,47.4,46.6,30.24,NE,41,0.0,0.0,97,0.00,,---,0.00,VWS V13.00,2013-10-13 09:02:00,
2013-10-13 02:07:00,47.3,46.5,30.24,NE,41,0.0,0.0,97,0.00,,---,0.00,VWS V13.00,2013-10-13 09:07:00,
2013-10-13 02:12:00,47.0,45.9,30.24,NE,41,0.0,0.0,96,0.00,,---,0.00,VWS V13.00,2013-10-13 09:12:00,
2013-10-13 02:17:00,46.7,45.6,30.24,NE,41,0.0,0.0,96,0.00,,---,0.00,VWS V13.00,2013-10-13 09:17:00,
2013-10-13 02:22:00,46.7,45.6,30.24,NE,41,0.0,0.0,96,0.00,,---,0.00,VWS V13.00,2013-10-13 09:22:00,
2013-10-13 02:27:00,46.5,45.4,30.24,NE,37,0.0,0.0,96,0.00,,---,0.00,VWS V13.00,2013-10-13 09:27:00,
2013-10-13 02:32:00,46.2,45.1,30.24,NE,41,0.0,0.0,96,0.00,,---,0.00,VWS V13.00,2013-10-13 09:32:00,
2013-10-13 02:37:00,46.2,45.1,30.24,NE,41,0.0,0.0,96,0.00,,---,0.00,VWS V13.00,2013-10-13 09:37:00,
2013-10-13 02:42:00,46.0,44.9,30.24,NE,41,0.0,0.0,96,0.00,,---,0.00,VWS V13.00,2013-10-13 09:42:00,
2013-10-13 02:46:00,45.8,44.7,30.24,NE,41,0.0,0.0,96,0.00,,---,0.00,VWS V13.00,2013-10-13 09:46:00,
2013-10-13 02:51:00,45.7,44.6,30.25,NE,41,0.0,0.0,96,0.00,,---,0.00,VWS V13.00,2013-10-13 09:51:00,
2013-10-13 02:56:00,45.7,44.6,30.25,NE,41,0.0,0.0,96,0.00,,---,0.00,VWS V13.00,2013-10-13 09:56:00,
2013-10-13 03:01:00,45.7,44.6,30.25,NE,41,0.0,0.0,96,0.00,,---,0.00,VWS V13.00,2013-10-13 10:01:00,
2013-10-13 03:06:00,45.7,44.6,30.25,NE,41,0.0,0.0,96,0.00,,---,0.00,VWS V13.00,2013-10-13 10:06:00,
2013-10-13 03:11:00,45.7,44.6,30.25,NE,41,0.0,0.0,96,0.00,,---,0.00,VWS V13.00,2013-10-13 10:11:00,
2013-10-13 03:16:00,45.7,44.6,30.25,NE,41,0.0,0.0,96,0.00,,---,0.00,VWS V13.00,2013-10-13 10:16:00,
2013-10-13 03:21:00,45.7,44.6,30.25,NE,41,0.0,0.0,96,0.00,,---,0.00,VWS V13.00,2013-10-13 10:21:00,
2013-10-13 03:26:00,45.7,44.9,30.25,NE,41,0.0,0.0,97,0.00,,---,0.00,VWS V13.00,2013-10-13 10:26:00,
2013-10-13 03:31:00,45.7,44.9,30.25,NE,41,0.0,0.0,97,0.00,,---,0.00,VWS V13.00,2013-10-13 10:31:00,
2013-10-13 03:36:00,45.7,44.9,30.26,NE,41,0.0,0.0,97,0.00,,---,0.00,VWS V13.00,2013-10-13 10:36:00,
2013-10-13 03:41:00,45.8,45.0,30.26,NE,41,0.0,0.0,97,0.00,,---,0.00,VWS V13.00,2013-10-13 10:41:00,
2013-10-13 03:46:00,45.8,45.0,30.26,NE,41,0.0,0.0,97,0.00,,---,0.00,VWS V13.00,2013-10-13 10:46:00,
2013-10-13 03:51:00,45.8,45.0,30.25,NE,41,0.0,0.0,97,0.00,,---,0.00,VWS V13.00,2013-10-13 10:51:00,
2013-10-13 03:56:00,46.0,45.2,30.25,NE,41,0.0,0.0,97,0.00,,---,0.00,VWS V13.00,2013-10-13 10:56:00,
2013-10-13 04:01:00,46.0,45.2,30.25,NE,41,0.0,0.0,97,0.00,,---,0.00,VWS V13.00,2013-10-13 11:01:00,
2013-10-13 04:06:00,46.0,45.2,30.25,NE,41,0.0,0.0,97,0.00,,---,0.00,VWS V13.00,2013-10-13 11:06:00,
2013-10-13 04:11:00,46.0,45.2,30.25,NE,41,0.0,0.0,97,0.00,,---,0.00,VWS V13.00,2013-10-13 11:11:00,
2013-10-13 04:16:00,45.8,45.0,30.25,NE,41,0.0,0.0,97,0.00,,---,0.00,VWS V13.00,2013-10-13 11:16:00,
2013-10-13 04:21:00,45.8,45.0,30.26,NE,41,0.0,0.0,97,0.00,,---,0.00,VWS V13.00,2013-10-13 11:21:00,
2013-10-13 04:26:00,45.8,45.0,30.26,NE,41,0.0,0.0,97,0.00,,---,0.00,VWS V13.00,2013-10-13 11:26:00,
2013-10-13 04:31:00,45.7,44.9,30.26,NE,41,0.0,0.0,97,0.00,,---,0.00,VWS V13.00,2013-10-13 11:31:00,
2013-10-13 04:36:00,45.7,44.9,30.26,NE,41,0.0,0.0,97,0.00,,---,0.00,VWS V13.00,2013-10-13 11:36:00,
2013-10-13 04:41:00,45.7,44.9,30.26,NE,41,0.0,0.0,97,0.00,,---,0.00,VWS V13.00,2013-10-13 11:41:00,
2013-10-13 04:46:00,45.5,44.7,30.26,NE,41,0.0,0.0,97,0.00,,---,0.00,VWS V13.00,2013-10-13 11:46:00,
2013-10-13 04:51:00,45.5,44.7,30.26,NE,41,0.0,0.0,97,0.00,,---,0.00,VWS V13.00,2013-10-13 11:51:00,
2013-10-13 04:56:00,45.5,44.7,30.26,NE,41,0.0,0.0,97,0.00,,---,0.00,VWS V13.00,2013-10-13 11:56:00,
2013-10-13 05:01:00,45.4,44.6,30.26,NE,41,0.0,0.0,97,0.00,,---,0.00,VWS V13.00,2013-10-13 12:01:00,
2013-10-13 05:06:00,45.2,44.4,30.26,NE,41,0.0,0.0,97,0.00,,---,0.00,VWS V13.00,2013-10-13 12:06:00,
2013-10-13 05:11:00,45.2,44.4,30.26,NE,41,0.0,0.0,97,0.00,,---,0.00,VWS V13.00,2013-10-13 12:11:00,
2013-10-13 05:16:00,45.1,44.3,30.26,NE,41,0.0,0.0,97,0.00,,---,0.00,VWS V13.00,2013-10-13 12:16:00,
2013-10-13 05:21:00,45.1,44.3,30.27,NE,41,0.0,0.0,97,0.00,,---,0.00,VWS V13.00,2013-10-13 12:21:00,
2013-10-13 05:26:00,44.9,44.1,30.27,NE,41,0.0,0.0,97,0.00,,---,0.00,VWS V13.00,2013-10-13 12:26:00,
2013-10-13 05:31:00,44.8,44.0,30.27,NE,41,0.0,0.0,97,0.00,,---,0.00,VWS V13.00,2013-10-13 12:31:00,
2013-10-13 05:36:00,44.6,43.8,30.27,NE,41,0.0,0.0,97,0.00,,---,0.00,VWS V13.00,2013-10-13 12:36:00,
2013-10-13 05:41:00,44.6,43.8,30.27,NE,41,0.0,0.0,97,0.00,,---,0.00,VWS V13.00,2013-10-13 12:41:00,
2013-10-13 05:46:00,44.5,43.7,30.27,NE,41,0.0,0.0,97,0.00,,---,0.00,VWS V13.00,2013-10-13 12:46:00,
2013-10-13 05:51:00,44.1,43.3,30.27,NE,41,0.0,0.0,97,0.00,,---,0.00,VWS V13.00,2013-10-13 12:51:00,
2013-10-13 05:56:00,43.9,43.1,30.27,NE,41,0.0,0.0,97,0.00,,---,0.00,VWS V13.00,2013-10-13 12:56:00,
2013-10-13 06:01:00,43.8,43.0,30.27,NE,41,0.0,0.0,97,0.00,,---,0.00,VWS V13.00,2013-10-13 13:01:00,
2013-10-13 06:06:00,43.6,42.8,30.28,NE,41,0.0,0.0,97,0.00,,---,0.00,VWS V13.00,2013-10-13 13:06:00,
2013-10-13 06:11:00,43.3,42.5,30.28,NE,41,0.0,0.0,97,0.00,,---,0.00,VWS V13.00,2013-10-13 13:11:00,
2013-10-13 06:16:00,43.3,42.5,30.28,NE,41,0.0,0.0,97,0.00,,---,0.00,VWS V13.00,2013-10-13 13:16:00,
2013-10-13 06:21:00,43.1,42.3,30.28,NE,41,0.0,0.0,97,0.00,,---,0.00,VWS V13.00,2013-10-13 13:21:00,
2013-10-13 06:26:00,42.8,42.0,30.28,NE,41,0.0,0.0,97,0.00,,---,0.00,VWS V13.00,2013-10-13 13:26:00,
2013-10-13 06:31:00,42.5,41.4,30.28,NE,41,0.0,0.0,96,0.00,,---,0.00,VWS V13.00,2013-10-13 13:31:00,
2013-10-13 06:36:00,42.5,41.4,30.27,NE,41,0.0,0.0,96,0.00,,---,0.00,VWS V13.00,2013-10-13 13:36:00,
2013-10-13 06:41:00,42.1,41.0,30.27,NE,41,0.0,0.0,96,0.00,,---,0.00,VWS V13.00,2013-10-13 13:41:00,
2013-10-13 06:46:00,42.1,41.0,30.27,NE,41,0.0,0.0,96,0.00,,---,0.00,VWS V13.00,2013-10-13 13:46:00,
2013-10-13 06:51:00,41.8,40.8,30.28,NE,41,0.0,0.0,96,0.00,,---,0.00,VWS V13.00,2013-10-13 13:51:00,
2013-10-13 06:56:00,41.6,40.5,30.28,NE,41,0.0,0.0,96,0.00,,---,0.00,VWS V13.00,2013-10-13 13:56:00,
2013-10-13 07:01:00,41.5,40.5,30.28,NE,41,0.0,0.0,96,0.00,,---,0.00,VWS V13.00,2013-10-13 14:01:00,
2013-10-13 07:06:00,41.5,40.5,30.28,NE,41,0.0,0.0,96,0.00,,---,0.00,VWS V13.00,2013-10-13 14:06:00,
2013-10-13 07:11:00,41.3,40.2,30.28,NE,41,0.0,0.0,96,0.00,,---,0.00,VWS V13.00,2013-10-13 14:11:00,
2013-10-13 07:16:00,41.3,40.2,30.28,NE,37,0.0,0.0,96,0.00,,---,0.00,VWS V13.00,2013-10-13 14:16:00,
2013-10-13 07:21:00,41.2,40.2,30.29,NE,41,0.0,0.0,96,0.00,,---,0.00,VWS V13.00,2013-10-13 14:21:00,
2013-10-13 07:26:00,41.2,40.2,30.29,NE,41,0.0,0.0,96,0.00,,---,0.00,VWS V13.00,2013-10-13 14:26:00,
2013-10-13 07:31:00,41.1,40.0,30.29,NE,41,0.0,0.0,96,0.00,,---,0.00,VWS V13.00,2013-10-13 14:31:00,
2013-10-13 07:36:00,41.1,40.0,30.29,NE,41,0.0,0.0,96,0.00,,---,0.00,VWS V13.00,2013-10-13 14:36:00,
2013-10-13 07:41:00,41.1,40.0,30.29,NE,41,0.0,0.0,96,0.00,,---,0.00,VWS V13.00,2013-10-13 14:41:00,
2013-10-13 07:46:00,41.2,40.2,30.29,NE,41,0.0,0.0,96,0.00,,---,0.00,VWS V13.00,2013-10-13 14:46:00,
2013-10-13 07:51:00,41.3,40.2,30.29,NE,41,0.0,0.0,96,0.00,,---,0.00,VWS V13.00,2013-10-13 14:51:00,
2013-10-13 07:56:00,41.3,40.2,30.29,NE,41,0.0,0.0,96,0.00,,---,0.00,VWS V13.00,2013-10-13 14:56:00,
2013-10-13 08:01:00,41.3,40.2,30.29,NE,41,0.0,0.0,96,0.00,,---,0.00,VWS V13.00,2013-10-13 15:01:00,
2013-10-13 08:06:00,41.6,40.5,30.30,NE,41,0.0,0.0,96,0.00,,---,0.00,VWS V13.00,2013-10-13 15:06:00,
2013-10-13 08:11:00,41.6,40.5,30.30,NE,41,0.0,0.0,96,0.00,,---,0.00,VWS V13.00,2013-10-13 15:11:00,
2013-10-13 08:16:00,41.8,40.8,30.30,NE,41,0.0,0.0,96,0.00,,---,0.00,VWS V13.00,2013-10-13 15:16:00,
2013-10-13 08:21:00,41.9,40.8,30.31,NE,41,0.0,0.0,96,0.00,,---,0.00,VWS V13.00,2013-10-13 15:21:00,
2013-10-13 08:26:00,41.9,40.8,30.31,NE,41,0.0,0.0,96,0.00,,---,0.00,VWS V13.00,2013-10-13 15:26:00,
2013-10-13 08:31:00,41.9,41.1,30.31,NE,41,0.0,0.0,97,0.00,,---,0.00,VWS V13.00,2013-10-13 15:31:00,
2013-10-13 08:36:00,41.9,41.1,30.31,NE,41,0.0,0.0,97,0.00,,---,0.00,VWS V13.00,2013-10-13 15:36:00,
2013-10-13 08:41:00,41.9,41.1,30.31,NE,41,0.0,0.0,97,0.00,,---,0.00,VWS V13.00,2013-10-13 15:41:00,
2013-10-13 08:46:00,42.1,41.3,30.31,NE,41,0.0,0.0,97,0.00,,---,0.00,VWS V13.00,2013-10-13 15:46:00,
2013-10-13 08:51:00,42.2,41.4,30.32,NE,41,0.0,0.0,97,0.00,,---,0.00,VWS V13.00,2013-10-13 15:51:00,
2013-10-13 08:56:00,42.2,41.7,30.32,NE,41,0.0,0.0,98,0.00,,---,0.00,VWS V13.00,2013-10-13 15:56:00,
2013-10-13 09:01:00,42.3,41.8,30.32,NE,41,0.0,0.0,98,0.00,,---,0.00,VWS V13.00,2013-10-13 16:01:00,
2013-10-13 09:06:00,42.5,42.0,30.32,NE,41,0.0,0.0,98,0.00,,---,0.00,VWS V13.00,2013-10-13 16:06:00,
2013-10-13 09:11:00,42.6,42.1,30.32,NE,41,0.0,0.0,98,0.00,,---,0.00,VWS V13.00,2013-10-13 16:11:00,
2013-10-13 09:16:00,42.6,42.1,30.32,NE,41,0.0,0.0,98,0.00,,---,0.00,VWS V13.00,2013-10-13 16:16:00,
2013-10-13 09:21:00,42.8,42.3,30.33,NE,41,0.0,0.0,98,0.00,,---,0.00,VWS V13.00,2013-10-13 16:21:00,
2013-10-13 09:26:00,42.8,42.3,30.33,NE,41,0.0,0.0,98,0.00,,---,0.00,VWS V13.00,2013-10-13 16:26:00,
2013-10-13 09:31:00,42.8,42.3,30.33,NE,41,0.0,0.0,98,0.00,,---,0.00,VWS V13.00,2013-10-13 16:31:00,
2013-10-13 09:36:00,43.1,42.6,30.33,NE,41,0.0,0.0,98,0.00,,---,0.00,VWS V13.00,2013-10-13 16:36:00,
2013-10-13 09:41:00,43.2,42.7,30.33,NE,41,0.0,0.0,98,0.00,,---,0.00,VWS V13.00,2013-10-13 16:41:00,
2013-10-13 09:46:00,43.3,42.8,30.33,NE,41,0.0,0.0,98,0.00,,---,0.00,VWS V13.00,2013-10-13 16:46:00,
2013-10-13 09:51:00,43.5,43.0,30.34,NE,41,0.0,0.0,98,0.00,,---,0.00,VWS V13.00,2013-10-13 16:51:00,
2013-10-13 09:56:00,43.5,43.0,30.34,NE,41,0.0,0.0,98,0.00,,---,0.00,VWS V13.00,2013-10-13 16:56:00,
2013-10-13 10:01:00,43.5,43.0,30.34,NE,41,0.0,0.0,98,0.00,,---,0.00,VWS V13.00,2013-10-13 17:01:00,
2013-10-13 10:06:00,43.6,43.1,30.33,NE,41,0.0,0.0,98,0.00,,---,0.00,VWS V13.00,2013-10-13 17:06:00,
2013-10-13 10:11:00,43.6,43.1,30.33,NE,41,0.0,0.0,98,0.00,,---,0.00,VWS V13.00,2013-10-13 17:11:00,
2013-10-13 10:16:00,43.8,43.3,30.33,NE,41,0.0,0.0,98,0.00,,---,0.00,VWS V13.00,2013-10-13 17:16:00,
2013-10-13 10:21:00,44.2,43.7,30.33,NE,41,0.0,0.0,98,0.00,,---,0.00,VWS V13.00,2013-10-13 17:21:00,
2013-10-13 10:26:00,44.6,44.1,30.33,NNE,24,1.0,1.0,98,0.00,,---,0.00,VWS V13.00,2013-10-13 17:26:00,
2013-10-13 10:31:00,44.6,44.1,30.33,NNE,24,0.0,1.0,98,0.00,,---,0.00,VWS V13.00,2013-10-13 17:31:00,
2013-10-13 10:36:00,44.6,44.1,30.33,NNE,24,0.0,1.0,98,0.00,,---,0.00,VWS V13.00,2013-10-13 17:36:00,
2013-10-13 10:41:00,44.6,44.1,30.33,NNE,24,0.0,0.0,98,0.00,,---,0.00,VWS V13.00,2013-10-13 17:41:00,
2013-10-13 10:46:00,44.6,44.1,30.33,NNE,24,0.0,0.0,98,0.00,,---,0.00,VWS V13.00,2013-10-13 17:46:00,
2013-10-13 10:51:00,44.9,44.4,30.33,NNE,24,0.0,0.0,98,0.00,,---,0.00,VWS V13.00,2013-10-13 17:51:00,
2013-10-13 10:56:00,44.9,44.4,30.33,NNE,23,0.0,0.0,98,0.00,,---,0.00,VWS V13.00,2013-10-13 17:56:00,
2013-10-13 11:01:00,44.9,44.4,30.33,NNE,23,0.0,0.0,98,0.00,,---,0.00,VWS V13.00,2013-10-13 18:01:00,
2013-10-13 11:06:00,44.9,44.4,30.33,NNE,24,0.0,0.0,98,0.00,,---,0.00,VWS V13.00,2013-10-13 18:06:00,
2013-10-13 11:11:00,45.2,44.7,30.33,NNE,24,0.0,0.0,98,0.00,,---,0.00,VWS V13.00,2013-10-13 18:11:00,
2013-10-13 11:16:00,45.2,44.7,30.33,NNE,24,0.0,0.0,98,0.00,,---,0.00,VWS V13.00,2013-10-13 18:16:00,
2013-10-13 11:21:00,45.4,44.9,30.33,NNE,24,0.0,0.0,98,0.00,,---,0.00,VWS V13.00,2013-10-13 18:21:00,
2013-10-13 11:26:00,45.8,45.3,30.33,NNE,24,0.0,0.0,98,0.00,,---,0.00,VWS V13.00,2013-10-13 18:26:00,
2013-10-13 11:31:00,46.0,45.5,30.33,NNE,24,0.0,0.0,98,0.00,,---,0.00,VWS V13.00,2013-10-13 18:31:00,
2013-10-13 11:36:00,46.0,45.5,30.33,NNE,24,0.0,0.0,98,0.00,,---,0.00,VWS V13.00,2013-10-13 18:36:00,
2013-10-13 11:41:00,46.1,45.6,30.33,NNE,24,0.0,0.0,98,0.00,,---,0.00,VWS V13.00,2013-10-13 18:41:00,
2013-10-13 11:46:00,46.1,45.6,30.33,NNE,24,0.0,0.0,98,0.00,,---,0.00,VWS V13.00,2013-10-13 18:46:00,
2013-10-13 11:51:00,46.0,45.5,30.33,NNE,24,0.0,0.0,98,0.00,,---,0.00,VWS V13.00,2013-10-13 18:51:00,
2013-10-13 11:56:00,46.0,45.5,30.33,NNE,24,0.0,0.0,98,0.00,,---,0.00,VWS V13.00,2013-10-13 18:56:00,
2013-10-13 12:01:00,46.0,45.5,30.33,NNE,24,0.0,0.0,98,0.00,,---,0.00,VWS V13.00,2013-10-13 19:01:00,
2013-10-13 12:06:00,46.0,45.5,30.33,NNE,24,0.0,0.0,98,0.00,,---,0.00,VWS V13.00,2013-10-13 19:06:00,
2013-10-13 12:11:00,46.0,45.5,30.33,NNE,24,0.0,0.0,98,0.00,,---,0.00,VWS V13.00,2013-10-13 19:11:00,
2013-10-13 12:16:00,46.2,45.7,30.33,NNE,24,0.0,0.0,98,0.00,,---,0.00,VWS V13.00,2013-10-13 19:16:00,
2013-10-13 12:21:00,46.4,45.9,30.33,NNE,24,0.0,0.0,98,0.00,,---,0.00,VWS V13.00,2013-10-13 19:21:00,
2013-10-13 12:26:00,46.7,46.2,30.33,NNE,24,0.0,0.0,98,0.00,,---,0.00,VWS V13.00,2013-10-13 19:26:00,
2013-10-13 12:31:00,46.8,46.3,30.33,NNE,24,0.0,0.0,98,0.00,,---,0.00,VWS V13.00,2013-10-13 19:31:00,
2013-10-13 12:36:00,47.0,46.5,30.32,NNE,24,0.0,0.0,98,0.00,,---,0.00,VWS V13.00,2013-10-13 19:36:00,
2013-10-13 12:41:00,47.0,46.5,30.32,NNE,24,0.0,0.0,98,0.00,,---,0.00,VWS V13.00,2013-10-13 19:41:00,
2013-10-13 12:46:00,47.1,46.6,30.32,NNE,24,0.0,0.0,98,0.00,,---,0.00,VWS V13.00,2013-10-13 19:46:00,
2013-10-13 12:51:00,47.3,46.8,30.32,NNE,24,0.0,0.0,98,0.00,,---,0.00,VWS V13.00,2013-10-13 19:51:00,
2013-10-13 12:56:00,47.4,46.9,30.32,NNE,24,0.0,0.0,98,0.00,,---,0.00,VWS V13.00,2013-10-13 19:56:00,
2013-10-13 13:01:00,47.6,47.1,30.32,NNE,24,0.0,0.0,98,0.00,,---,0.00,VWS V13.00,2013-10-13 20:01:00,
2013-10-13 13:06:00,47.9,47.4,30.32,NNE,24,0.0,0.0,98,0.00,,---,0.00,VWS V13.00,2013-10-13 20:06:00,
2013-10-13 13:11:00,48.2,47.7,30.32,NNE,24,0.0,0.0,98,0.00,,---,0.00,VWS V13.00,2013-10-13 20:11:00,
2013-10-13 13:16:00,48.3,47.8,30.32,NNE,24,0.0,0.0,98,0.00,,---,0.00,VWS V13.00,2013-10-13 20:16:00,
2013-10-13 13:21:00,48.6,48.1,30.32,NNE,24,0.0,0.0,98,0.00,,---,0.00,VWS V13.00,2013-10-13 20:21:00,
2013-10-13 13:26:00,48.8,48.3,30.32,NNE,24,0.0,0.0,98,0.00,,---,0.00,VWS V13.00,2013-10-13 20:26:00,
2013-10-13 13:31:00,49.6,49.1,30.32,NNE,24,0.0,0.0,98,0.00,,---,0.00,VWS V13.00,2013-10-13 20:31:00,
2013-10-13 13:36:00,49.9,49.1,30.32,NNE,24,0.0,0.0,97,0.00,,---,0.00,VWS V13.00,2013-10-13 20:36:00,
2013-10-13 13:41:00,49.9,49.1,30.32,NNE,24,0.0,0.0,97,0.00,,---,0.00,VWS V13.00,2013-10-13 20:41:00,
2013-10-13 13:46:00,49.9,49.1,30.32,NNE,24,0.0,0.0,97,0.00,,---,0.00,VWS V13.00,2013-10-13 20:46:00,
2013-10-13 13:51:00,50.2,49.4,30.32,NNE,24,0.0,0.0,97,0.00,,---,0.00,VWS V13.00,2013-10-13 20:51:00,
2013-10-13 13:56:00,50.4,49.3,30.32,NNE,24,0.0,0.0,96,0.00,,---,0.00,VWS V13.00,2013-10-13 20:56:00,
2013-10-13 14:01:00,50.4,49.0,30.32,NNE,24,0.0,0.0,95,0.00,,---,0.00,VWS V13.00,2013-10-13 21:01:00,
2013-10-13 14:06:00,50.5,49.1,30.32,NNE,24,0.0,0.0,95,0.00,,---,0.00,VWS V13.00,2013-10-13 21:06:00,
2013-10-13 14:11:00,50.8,49.1,30.32,NNE,24,0.0,0.0,94,0.00,,---,0.00,VWS V13.00,2013-10-13 21:11:00,
2013-10-13 14:16:00,50.8,49.1,30.32,NNE,24,0.0,0.0,94,0.00,,---,0.00,VWS V13.00,2013-10-13 21:16:00,
2013-10-13 14:21:00,50.8,48.6,30.32,NNE,24,0.0,0.0,92,0.00,,---,0.00,VWS V13.00,2013-10-13 21:21:00,
2013-10-13 14:26:00,52.3,49.2,30.32,NNE,24,0.0,0.0,89,0.00,,---,0.00,VWS V13.00,2013-10-13 21:26:00,
2013-10-13 14:31:00,52.3,47.3,30.32,NW,319,1.0,2.0,83,0.00,,---,0.00,VWS V13.00,2013-10-13 21:31:00,
2013-10-13 14:36:00,52.6,47.6,30.32,NW,322,0.0,2.0,83,0.00,,---,0.00,VWS V13.00,2013-10-13 21:36:00,
2013-10-13 14:41:00,52.9,47.6,30.32,NW,322,0.0,0.0,82,0.00,,---,0.00,VWS V13.00,2013-10-13 21:41:00,
2013-10-13 14:46:00,53.6,48.2,30.32,NW,322,0.0,0.0,82,0.00,,---,0.00,VWS V13.00,2013-10-13 21:46:00,
2013-10-13 14:51:00,53.6,48.2,30.32,NNW,330,0.0,1.0,82,0.00,,---,0.00,VWS V13.00,2013-10-13 21:51:00,
2013-10-13 14:56:00,55.0,48.3,30.32,NNW,330,0.0,1.0,78,0.00,,---,0.00,VWS V13.00,2013-10-13 21:56:00,
2013-10-13 15:01:00,55.4,48.7,30.32,NNW,330,0.0,1.0,78,0.00,,---,0.00,VWS V13.00,2013-10-13 22:01:00,
2013-10-13 15:06:00,55.4,48.3,30.31,North,356,0.0,1.0,77,0.00,,---,0.00,VWS V13.00,2013-10-13 22:06:00,
2013-10-13 15:11:00,55.6,48.5,30.31,North,356,0.0,0.0,77,0.00,,---,0.00,VWS V13.00,2013-10-13 22:11:00,
2013-10-13 15:16:00,55.7,49.3,30.31,North,356,0.0,0.0,79,0.00,,---,0.00,VWS V13.00,2013-10-13 22:16:00,
2013-10-13 15:21:00,55.7,48.3,30.31,North,356,0.0,0.0,76,0.00,,---,0.00,VWS V13.00,2013-10-13 22:21:00,
2013-10-13 15:26:00,55.3,47.9,30.31,North,356,0.0,0.0,76,0.00,,---,0.00,VWS V13.00,2013-10-13 22:26:00,
2013-10-13 15:31:00,55.3,48.2,30.31,North,349,0.0,0.0,77,0.00,,---,0.00,VWS V13.00,2013-10-13 22:31:00,
2013-10-13 15:36:00,54.4,46.7,30.32,North,349,0.0,0.0,75,0.00,,---,0.00,VWS V13.00,2013-10-13 22:36:00,
2013-10-13 15:41:00,54.7,46.9,30.32,West,275,0.0,0.0,75,0.00,,---,0.00,VWS V13.00,2013-10-13 22:41:00,
2013-10-13 15:46:00,54.7,46.9,30.32,SW,219,0.0,0.0,75,0.00,,---,0.00,VWS V13.00,2013-10-13 22:46:00,
2013-10-13 15:51:00,54.7,46.9,30.32,SW,219,0.0,0.0,75,0.00,,---,0.00,VWS V13.00,2013-10-13 22:51:00,
2013-10-13 15:56:00,54.7,47.6,30.32,SSE,167,0.0,0.0,77,0.00,,---,0.00,VWS V13.00,2013-10-13 22:56:00,
2013-10-13 16:01:00,54.7,47.6,30.32,SSE,167,0.0,0.0,77,0.00,,---,0.00,VWS V13.00,2013-10-13 23:01:00,
2013-10-13 16:06:00,54.5,47.1,30.32,SSE,167,0.0,0.0,76,0.00,,---,0.00,VWS V13.00,2013-10-13 23:06:00,
2013-10-13 16:11:00,54.2,46.8,30.32,SSE,167,0.0,0.0,76,0.00,,---,0.00,VWS V13.00,2013-10-13 23:11:00,
2013-10-13 16:16:00,54.1,47.1,30.32,East,100,0.0,0.0,77,0.00,,---,0.00,VWS V13.00,2013-10-13 23:16:00,
2013-10-13 16:20:00,53.8,46.8,30.32,East,100,0.0,0.0,77,0.00,,---,0.00,VWS V13.00,2013-10-13 23:20:00,
2013-10-13 16:25:00,53.8,46.8,30.32,East,100,0.0,0.0,77,0.00,,---,0.00,VWS V13.00,2013-10-13 23:25:00,
2013-10-13 16:30:00,53.6,46.6,30.32,East,100,0.0,0.0,77,0.00,,---,0.00,VWS V13.00,2013-10-13 23:30:00,
2013-10-13 16:35:00,53.5,46.5,30.32,East,100,0.0,0.0,77,0.00,,---,0.00,VWS V13.00,2013-10-13 23:35:00,
2013-10-13 16:40:00,53.3,46.3,30.32,East,100,0.0,0.0,77,0.00,,---,0.00,VWS V13.00,2013-10-13 23:40:00,
2013-10-13 16:45:00,53.2,46.2,30.32,East,100,0.0,0.0,77,0.00,,---,0.00,VWS V13.00,2013-10-13 23:45:00,
2013-10-13 16:50:00,53.2,46.2,30.32,East,100,0.0,0.0,77,0.00,,---,0.00,VWS V13.00,2013-10-13 23:50:00,
2013-10-13 16:56:00,52.9,45.9,30.32,East,100,0.0,0.0,77,0.00,,---,0.00,VWS V13.00,2013-10-13 23:56:00,
2013-10-13 17:01:00,52.9,45.9,30.32,East,100,0.0,0.0,77,0.00,,---,0.00,VWS V13.00,2013-10-14 00:01:00,
2013-10-13 17:06:00,52.8,45.8,30.32,East,100,0.0,0.0,77,0.00,,---,0.00,VWS V13.00,2013-10-14 00:06:00,
2013-10-13 17:11:00,52.8,45.8,30.32,East,100,0.0,0.0,77,0.00,,---,0.00,VWS V13.00,2013-10-14 00:11:00,
2013-10-13 17:16:00,52.5,45.5,30.32,East,100,0.0,0.0,77,0.00,,---,0.00,VWS V13.00,2013-10-14 00:16:00,
2013-10-13 17:21:00,52.5,45.5,30.32,East,100,0.0,0.0,77,0.00,,---,0.00,VWS V13.00,2013-10-14 00:21:00,
2013-10-13 17:26:00,52.2,45.2,30.32,East,100,0.0,0.0,77,0.00,,---,0.00,VWS V13.00,2013-10-14 00:26:00,
2013-10-13 17:31:00,52.2,48.2,30.32,East,100,0.0,0.0,86,0.00,,---,0.00,VWS V13.00,2013-10-14 00:31:00,
2013-10-13 17:36:00,51.9,47.8,30.32,East,100,0.0,0.0,86,0.00,,---,0.00,VWS V13.00,2013-10-14 00:36:00,
2013-10-13 17:41:00,51.7,47.7,30.32,East,100,0.0,0.0,86,0.00,,---,0.00,VWS V13.00,2013-10-14 00:41:00,
2013-10-13 17:46:00,51.6,47.6,30.32,East,100,0.0,0.0,86,0.00,,---,0.00,VWS V13.00,2013-10-14 00:46:00,
2013-10-13 17:51:00,51.4,47.7,30.33,East,100,0.0,0.0,87,0.00,,---,0.00,VWS V13.00,2013-10-14 00:51:00,
2013-10-13 17:56:00,51.3,47.6,30.33,East,100,0.0,0.0,87,0.00,,---,0.00,VWS V13.00,2013-10-14 00:56:00,
2013-10-13 18:01:00,51.0,47.3,30.33,East,100,0.0,0.0,87,0.00,,---,0.00,VWS V13.00,2013-10-14 01:01:00,
2013-10-13 18:06:00,50.8,47.1,30.33,East,100,0.0,0.0,87,0.00,,---,0.00,VWS V13.00,2013-10-14 01:06:00,
2013-10-13 18:11:00,50.7,47.6,30.33,East,100,0.0,0.0,89,0.00,,---,0.00,VWS V13.00,2013-10-14 01:11:00,
2013-10-13 18:16:00,50.4,47.3,30.33,East,100,0.0,0.0,89,0.00,,---,0.00,VWS V13.00,2013-10-14 01:16:00,
2013-10-13 18:21:00,50.2,47.1,30.33,East,100,0.0,0.0,89,0.00,,---,0.00,VWS V13.00,2013-10-14 01:21:00,
2013-10-13 18:26:00,49.9,46.8,30.33,East,100,0.0,0.0,89,0.00,,---,0.00,VWS V13.00,2013-10-14 01:26:00,
2013-10-13 18:31:00,49.8,46.7,30.33,East,100,0.0,0.0,89,0.00,,---,0.00,VWS V13.00,2013-10-14 01:31:00,
2013-10-13 18:36:00,49.5,46.4,30.33,East,100,0.0,0.0,89,0.00,,---,0.00,VWS V13.00,2013-10-14 01:36:00,
2013-10-13 18:41:00,49.2,46.1,30.33,East,100,0.0,0.0,89,0.00,,---,0.00,VWS V13.00,2013-10-14 01:41:00,
2013-10-13 18:46:00,48.8,45.7,30.33,East,100,0.0,0.0,89,0.00,,---,0.00,VWS V13.00,2013-10-14 01:46:00,
2013-10-13 18:51:00,48.5,45.7,30.34,East,100,0.0,0.0,90,0.00,,---,0.00,VWS V13.00,2013-10-14 01:51:00,
2013-10-13 18:56:00,48.3,45.5,30.34,East,100,0.0,0.0,90,0.00,,---,0.00,VWS V13.00,2013-10-14 01:56:00,
2013-10-13 19:01:00,48.0,45.2,30.34,East,100,0.0,0.0,90,0.00,,---,0.00,VWS V13.00,2013-10-14 02:01:00,
2013-10-13 19:06:00,48.0,45.2,30.34,East,100,0.0,0.0,90,0.00,,---,0.00,VWS V13.00,2013-10-14 02:06:00,
2013-10-13 19:11:00,47.4,44.6,30.34,East,100,0.0,0.0,90,0.00,,---,0.00,VWS V13.00,2013-10-14 02:11:00,
2013-10-13 19:16:00,47.3,44.5,30.34,East,100,0.0,0.0,90,0.00,,---,0.00,VWS V13.00,2013-10-14 02:16:00,
2013-10-13 19:21:00,47.3,44.5,30.34,East,100,0.0,0.0,90,0.00,,---,0.00,VWS V13.00,2013-10-14 02:21:00,
2013-10-13 19:26:00,46.5,43.7,30.34,East,100,0.0,0.0,90,0.00,,---,0.00,VWS V13.00,2013-10-14 02:26:00,
2013-10-13 19:31:00,46.2,43.4,30.34,East,100,0.0,0.0,90,0.00,,---,0.00,VWS V13.00,2013-10-14 02:31:00,
2013-10-13 19:36:00,46.1,43.3,30.35,East,100,0.0,0.0,90,0.00,,---,0.00,VWS V13.00,2013-10-14 02:36:00,
2013-10-13 19:41:00,46.0,43.2,30.35,East,100,0.0,0.0,90,0.00,,---,0.00,VWS V13.00,2013-10-14 02:41:00,
2013-10-13 19:46:00,45.7,43.5,30.35,East,100,0.0,0.0,92,0.00,,---,0.00,VWS V13.00,2013-10-14 02:46:00,
2013-10-13 19:51:00,45.7,43.5,30.35,East,100,0.0,0.0,92,0.00,,---,0.00,VWS V13.00,2013-10-14 02:51:00,
2013-10-13 19:56:00,45.2,43.0,30.35,East,100,0.0,0.0,92,0.00,,---,0.00,VWS V13.00,2013-10-14 02:56:00,
2013-10-13 20:01:00,45.1,42.9,30.35,East,100,0.0,0.0,92,0.00,,---,0.00,VWS V13.00,2013-10-14 03:01:00,
2013-10-13 20:06:00,44.8,42.6,30.35,East,100,0.0,0.0,92,0.00,,---,0.00,VWS V13.00,2013-10-14 03:06:00,
2013-10-13 20:11:00,44.8,42.6,30.35,East,100,0.0,0.0,92,0.00,,---,0.00,VWS V13.00,2013-10-14 03:11:00,
2013-10-13 20:16:00,44.5,42.3,30.35,East,100,0.0,0.0,92,0.00,,---,0.00,VWS V13.00,2013-10-14 03:16:00,
2013-10-13 20:21:00,44.2,42.0,30.36,East,100,0.0,0.0,92,0.00,,---,0.00,VWS V13.00,2013-10-14 03:21:00,
2013-10-13 20:26:00,44.2,42.0,30.36,East,100,0.0,0.0,92,0.00,,---,0.00,VWS V13.00,2013-10-14 03:26:00,
2013-10-13 20:31:00,44.2,42.0,30.36,East,100,0.0,0.0,92,0.00,,---,0.00,VWS V13.00,2013-10-14 03:31:00,
2013-10-13 20:36:00,43.9,41.7,30.36,East,100,0.0,0.0,92,0.00,,---,0.00,VWS V13.00,2013-10-14 03:36:00,
2013-10-13 20:41:00,43.8,41.6,30.36,East,100,0.0,0.0,92,0.00,,---,0.00,VWS V13.00,2013-10-14 03:41:00,
2013-10-13 20:46:00,43.5,41.3,30.36,East,100,0.0,0.0,92,0.00,,---,0.00,VWS V13.00,2013-10-14 03:46:00,
2013-10-13 20:51:00,43.5,41.3,30.36,East,100,0.0,0.0,92,0.00,,---,0.00,VWS V13.00,2013-10-14 03:51:00,
2013-10-13 20:56:00,43.3,41.7,30.36,East,100,0.0,0.0,94,0.00,,---,0.00,VWS V13.00,2013-10-14 03:56:00,
2013-10-13 21:01:00,43.3,41.7,30.36,East,100,0.0,0.0,94,0.00,,---,0.00,VWS V13.00,2013-10-14 04:01:00,
2013-10-13 21:02:00,43.2,41.6,30.36,East,100,0.0,0.0,94,0.00,,---,0.00,VWS V13.00,2013-10-14 04:02:00,
2013-10-13 21:07:00,43.1,41.5,30.36,East,100,0.0,0.0,94,0.00,,---,0.00,VWS V13.00,2013-10-14 04:07:00,
2013-10-13 21:12:00,43.1,41.5,30.36,East,100,0.0,0.0,94,0.00,,---,0.00,VWS V13.00,2013-10-14 04:12:00,
2013-10-13 21:17:00,42.9,41.3,30.36,East,100,0.0,0.0,94,0.00,,---,0.00,VWS V13.00,2013-10-14 04:17:00,
2013-10-13 21:22:00,42.9,41.3,30.36,East,100,0.0,0.0,94,0.00,,---,0.00,VWS V13.00,2013-10-14 04:22:00,
2013-10-13 21:27:00,42.6,41.0,30.36,East,100,0.0,0.0,94,0.00,,---,0.00,VWS V13.00,2013-10-14 04:27:00,
2013-10-13 21:32:00,42.5,40.9,30.36,East,100,0.0,0.0,94,0.00,,---,0.00,VWS V13.00,2013-10-14 04:32:00,
2013-10-13 21:37:00,42.5,41.2,30.37,East,100,0.0,0.0,95,0.00,,---,0.00,VWS V13.00,2013-10-14 04:37:00,
2013-10-13 21:42:00,42.3,41.0,30.37,East,100,0.0,0.0,95,0.00,,---,0.00,VWS V13.00,2013-10-14 04:42:00,
2013-10-13 21:47:00,42.2,40.9,30.37,East,100,0.0,0.0,95,0.00,,---,0.00,VWS V13.00,2013-10-14 04:47:00,
2013-10-13 21:52:00,42.2,40.9,30.37,East,100,0.0,0.0,95,0.00,,---,0.00,VWS V13.00,2013-10-14 04:52:00,
2013-10-13 21:57:00,42.2,40.9,30.37,East,100,0.0,0.0,95,0.00,,---,0.00,VWS V13.00,2013-10-14 04:57:00,
2013-10-13 22:02:00,41.9,40.6,30.37,East,96,0.0,0.0,95,0.00,,---,0.00,VWS V13.00,2013-10-14 05:02:00,
2013-10-13 22:07:00,41.9,40.6,30.37,East,100,0.0,0.0,95,0.00,,---,0.00,VWS V13.00,2013-10-14 05:07:00,
2013-10-13 22:12:00,41.8,40.5,30.37,East,100,0.0,0.0,95,0.00,,---,0.00,VWS V13.00,2013-10-14 05:12:00,
2013-10-13 22:17:00,41.6,40.3,30.37,East,100,0.0,0.0,95,0.00,,---,0.00,VWS V13.00,2013-10-14 05:17:00,
2013-10-13 22:22:00,41.5,40.2,30.37,East,100,0.0,0.0,95,0.00,,---,0.00,VWS V13.00,2013-10-14 05:22:00,
2013-10-13 22:27:00,41.5,40.2,30.37,East,100,0.0,0.0,95,0.00,,---,0.00,VWS V13.00,2013-10-14 05:27:00,
2013-10-13 22:32:00,41.3,40.0,30.37,East,100,0.0,0.0,95,0.00,,---,0.00,VWS V13.00,2013-10-14 05:32:00,
2013-10-13 22:37:00,41.2,39.9,30.37,East,100,0.0,0.0,95,0.00,,---,0.00,VWS V13.00,2013-10-14 05:37:00,
2013-10-13 22:42:00,41.1,39.8,30.37,East,100,0.0,0.0,95,0.00,,---,0.00,VWS V13.00,2013-10-14 05:42:00,
2013-10-13 22:47:00,40.9,39.6,30.37,East,100,0.0,0.0,95,0.00,,---,0.00,VWS V13.00,2013-10-14 05:47:00,
2013-10-13 22:52:00,40.8,39.5,30.38,East,100,0.0,0.0,95,0.00,,---,0.00,VWS V13.00,2013-10-14 05:52:00,
2013-10-13 22:57:00,40.8,39.5,30.38,East,100,0.0,0.0,95,0.00,,---,0.00,VWS V13.00,2013-10-14 05:57:00,
2013-10-13 23:02:00,40.6,39.3,30.38,East,100,0.0,0.0,95,0.00,,---,0.00,VWS V13.00,2013-10-14 06:02:00,
2013-10-13 23:07:00,40.5,39.2,30.38,East,100,0.0,0.0,95,0.00,,---,0.00,VWS V13.00,2013-10-14 06:07:00,
2013-10-13 23:12:00,40.3,39.0,30.38,East,100,0.0,0.0,95,0.00,,---,0.00,VWS V13.00,2013-10-14 06:12:00,
2013-10-13 23:17:00,40.3,39.0,30.38,East,100,0.0,0.0,95,0.00,,---,0.00,VWS V13.00,2013-10-14 06:17:00,
2013-10-13 23:22:00,40.2,38.9,30.38,East,100,0.0,0.0,95,0.00,,---,0.00,VWS V13.00,2013-10-14 06:22:00,
2013-10-13 23:27:00,40.2,39.2,30.38,East,100,0.0,0.0,96,0.00,,---,0.00,VWS V13.00,2013-10-14 06:27:00,
2013-10-13 23:32:00,39.9,38.8,30.38,East,100,0.0,0.0,96,0.00,,---,0.00,VWS V13.00,2013-10-14 06:32:00,
2013-10-13 23:37:00,39.9,38.8,30.38,East,100,0.0,0.0,96,0.00,,---,0.00,VWS V13.00,2013-10-14 06:37:00,
2013-10-13 23:42:00,39.8,38.8,30.38,East,100,0.0,0.0,96,0.00,,---,0.00,VWS V13.00,2013-10-14 06:42:00,
2013-10-13 23:47:00,39.8,38.8,30.38,East,100,0.0,0.0,96,0.00,,---,0.00,VWS V13.00,2013-10-14 06:47:00,
2013-10-13 23:52:00,39.6,38.6,30.39,East,100,0.0,0.0,96,0.00,,---,0.00,VWS V13.00,2013-10-14 06:52:00,
2013-10-13 23:57:00,39.6,38.6,30.39,East,100,0.0,0.0,96,0.00,,---,0.00,VWS V13.00,2013-10-14 06:57:00,